createdAt,value
2019-03-30T00:01:51.496Z,99494.94
2019-03-30T00:04:18.590Z,99496.66
2019-03-30T00:06:45.719Z,99492.72
2019-03-30T00:09:13.113Z,99489.17
2019-03-30T00:11:40.175Z,99492.59
2019-03-30T00:14:07.386Z,99485.44
2019-03-30T00:16:34.773Z,99488.84
2019-03-30T00:19:01.982Z,99493.66
2019-03-30T00:21:29.078Z,99495.98
2019-03-30T00:23:56.220Z,99491.22
2019-03-30T00:26:23.290Z,99493.97
2019-03-30T00:28:50.420Z,99489.45
2019-03-30T00:31:18.130Z,99486.98
2019-03-30T00:33:45.425Z,99486.20
2019-03-30T00:36:13.625Z,99483.17
2019-03-30T00:38:40.993Z,99485.77
2019-03-30T00:41:09.268Z,99476.02
2019-03-30T00:43:37.112Z,99475.52
2019-03-30T00:46:06.305Z,99477.17
2019-03-30T00:48:37.889Z,99479.33
2019-03-30T00:51:07.654Z,99473.98
2019-03-30T00:53:39.964Z,99473.13
2019-03-30T00:56:09.779Z,99473.72
2019-03-30T00:58:39.483Z,99467.72
2019-03-30T01:01:10.431Z,99471.48
2019-03-30T01:03:41.020Z,99463.95
2019-03-30T01:06:08.652Z,99467.34
2019-03-30T01:08:35.939Z,99463.83
2019-03-30T01:11:03.320Z,99466.87
2019-03-30T01:13:33.689Z,99459.07
2019-03-30T01:16:00.929Z,99461.25
2019-03-30T01:18:28.347Z,99462.23
2019-03-30T01:20:58.388Z,99456.06
2019-03-30T01:23:27.588Z,99453.03
2019-03-30T01:25:58.177Z,99451.56
2019-03-30T01:28:27.915Z,99446.66
2019-03-30T01:30:57.458Z,99441.91
2019-03-30T01:33:28.833Z,99437.66
2019-03-30T01:35:59.444Z,99438.95
2019-03-30T01:38:29.721Z,99438.05
2019-03-30T01:41:01.070Z,99440.58
2019-03-30T01:43:29.662Z,99431.45
2019-03-30T01:46:00.062Z,99434.41
2019-03-30T01:48:30.645Z,99432.19
2019-03-30T01:50:58.477Z,99431.20
2019-03-30T01:53:29.398Z,99431.67
2019-03-30T01:55:59.858Z,99432.08
2019-03-30T01:58:32.719Z,99434.79
2019-03-30T02:01:00.792Z,99432.27
2019-03-30T02:03:28.213Z,99436.67
2019-03-30T02:05:55.301Z,99433.23
2019-03-30T02:08:22.495Z,99434.96
2019-03-30T02:10:49.562Z,99432.38
2019-03-30T02:13:16.914Z,99427.13
2019-03-30T02:15:44.058Z,99429.72
2019-03-30T02:18:11.171Z,99420.54
2019-03-30T02:20:40.114Z,99422.27
2019-03-30T02:23:07.717Z,99419.31
2019-03-30T02:25:36.340Z,99422.27
2019-03-30T02:28:06.765Z,99419.63
2019-03-30T02:30:38.206Z,99416.47
2019-03-30T02:33:09.344Z,99416.89
2019-03-30T02:35:36.551Z,99412.05
2019-03-30T02:38:06.454Z,99418.53
2019-03-30T02:40:33.965Z,99410.70
2019-03-30T02:43:01.525Z,99414.47
2019-03-30T02:45:28.752Z,99416.22
2019-03-30T02:48:00.982Z,99415.70
2019-03-30T02:50:28.087Z,99414.86
2019-03-30T02:52:57.179Z,99412.70
2019-03-30T02:55:27.555Z,99404.88
2019-03-30T02:57:54.876Z,99409.56
2019-03-30T03:00:22.058Z,99397.37
2019-03-30T03:02:49.512Z,99398.08
2019-03-30T03:05:17.288Z,99397.43
2019-03-30T03:07:46.880Z,99398.06
2019-03-30T03:10:17.815Z,99395.84
2019-03-30T03:12:46.208Z,99397.71
2019-03-30T03:15:16.069Z,99395.69
2019-03-30T03:17:48.229Z,99394.95
2019-03-30T03:20:18.359Z,99396.80
2019-03-30T03:22:47.125Z,99399.32
2019-03-30T03:25:16.523Z,99405.23
2019-03-30T03:27:46.500Z,99393.39
2019-03-30T03:30:14.461Z,99399.89
2019-03-30T03:32:41.613Z,99396.58
2019-03-30T03:35:11.502Z,99403.03
2019-03-30T03:37:45.294Z,99398.97
2019-03-30T03:40:08.150Z,99396.77
2019-03-30T03:42:35.736Z,99394.62
2019-03-30T03:45:05.945Z,99394.54
2019-03-30T03:47:41.314Z,99390.55
2019-03-30T03:50:17.226Z,99386.72
2019-03-30T03:52:46.842Z,99389.30
2019-03-30T03:55:16.443Z,99389.30
2019-03-30T03:57:46.312Z,99393.59
2019-03-30T04:00:14.395Z,99395.75
2019-03-30T04:02:41.588Z,99391.00
2019-03-30T04:05:11.871Z,99383.08
2019-03-30T04:07:42.162Z,99387.30
2019-03-30T04:10:09.889Z,99382.34
2019-03-30T04:12:37.297Z,99382.64
2019-03-30T04:15:08.156Z,99376.20
2019-03-30T04:17:36.086Z,99378.50
2019-03-30T04:20:04.195Z,99372.45
2019-03-30T04:22:33.786Z,99369.81
2019-03-30T04:25:00.883Z,99369.00
2019-03-30T04:27:28.450Z,99365.34
2019-03-30T04:29:55.492Z,99368.34
2019-03-30T04:32:22.746Z,99361.16
2019-03-30T04:34:50.049Z,99368.51
2019-03-30T04:37:17.060Z,99364.56
2019-03-30T04:39:44.284Z,99364.59
2019-03-30T04:42:11.674Z,99368.47
2019-03-30T04:44:38.932Z,99358.42
2019-03-30T04:47:06.390Z,99357.38
2019-03-30T04:49:33.652Z,99356.13
2019-03-30T04:52:00.731Z,99350.76
2019-03-30T04:54:27.894Z,99344.00
2019-03-30T04:56:55.161Z,99343.27
2019-03-30T04:59:22.372Z,99342.34
2019-03-30T05:01:49.669Z,99336.66
2019-03-30T05:04:17.023Z,99332.75
2019-03-30T05:06:44.204Z,99338.63
2019-03-30T05:09:11.314Z,99333.41
2019-03-30T05:11:38.612Z,99336.79
2019-03-30T05:14:08.696Z,99327.22
2019-03-30T05:16:38.568Z,99322.77
2019-03-30T05:19:05.950Z,99329.72
2019-03-30T05:21:34.062Z,99323.41
2019-03-30T05:24:01.216Z,99329.05
2019-03-30T05:26:28.328Z,99327.66
2019-03-30T05:28:55.712Z,99326.67
2019-03-30T05:31:22.941Z,99327.55
2019-03-30T05:33:50.109Z,99325.36
2019-03-30T05:36:17.245Z,99323.11
2019-03-30T05:38:44.448Z,99328.22
2019-03-30T05:41:11.685Z,99330.47
2019-03-30T05:43:41.591Z,99327.91
2019-03-30T05:46:08.749Z,99327.65
2019-03-30T05:48:36.041Z,99331.37
2019-03-30T05:51:03.253Z,99329.91
2019-03-30T05:53:30.367Z,99335.80
2019-03-30T05:55:59.478Z,99332.51
2019-03-30T05:58:26.566Z,99323.54
2019-03-30T06:00:54.590Z,99331.89
2019-03-30T06:03:21.670Z,99321.59
2019-03-30T06:05:48.817Z,99326.81
2019-03-30T06:08:16.304Z,99325.03
2019-03-30T06:10:43.430Z,99320.73
2019-03-30T06:13:10.572Z,99322.41
2019-03-30T06:15:37.778Z,99318.56
2019-03-30T06:18:05.040Z,99322.10
2019-03-30T06:20:33.609Z,99330.45
2019-03-30T06:23:00.744Z,99316.64
2019-03-30T06:25:27.890Z,99320.27
2019-03-30T06:27:59.304Z,99324.75
2019-03-30T06:30:28.243Z,99319.60
2019-03-30T06:32:57.700Z,99313.56
2019-03-30T06:35:24.877Z,99321.92
2019-03-30T06:37:52.924Z,99323.30
2019-03-30T06:40:20.995Z,99319.84
2019-03-30T06:42:48.161Z,99319.82
2019-03-30T06:45:15.614Z,99317.20
2019-03-30T06:47:42.699Z,99318.90
2019-03-30T06:50:11.049Z,99318.33
2019-03-30T06:52:45.960Z,99315.16
2019-03-30T06:55:10.205Z,99313.28
2019-03-30T06:57:37.715Z,99311.27
2019-03-30T07:00:05.768Z,99307.61
2019-03-30T07:02:33.119Z,99312.59
2019-03-30T07:05:01.614Z,99308.86
2019-03-30T07:07:28.821Z,99305.09
2019-03-30T07:09:58.461Z,99302.73
2019-03-30T07:12:26.712Z,99305.27
2019-03-30T07:14:55.728Z,99299.23
2019-03-30T07:17:23.568Z,99300.56
2019-03-30T07:19:53.281Z,99295.33
2019-03-30T07:22:20.591Z,99299.63
2019-03-30T07:24:49.884Z,99299.98
2019-03-30T07:27:17.023Z,99294.48
2019-03-30T07:29:44.610Z,99293.08
2019-03-30T07:32:15.879Z,99297.23
2019-03-30T07:34:43.011Z,99296.97
2019-03-30T07:37:10.081Z,99295.34
2019-03-30T07:39:37.391Z,99294.59
2019-03-30T07:42:04.821Z,99292.41
2019-03-30T07:44:32.234Z,99278.88
2019-03-30T07:47:01.103Z,99286.22
2019-03-30T07:49:28.241Z,99285.55
2019-03-30T07:51:55.427Z,99285.06
2019-03-30T07:54:24.980Z,99280.00
2019-03-30T07:57:05.403Z,99277.03
2019-03-30T07:59:27.760Z,99279.38
2019-03-30T08:01:54.953Z,99269.80
2019-03-30T08:04:22.667Z,99267.73
2019-03-30T08:06:50.800Z,99265.98
2019-03-30T08:09:18.214Z,99260.84
2019-03-30T08:11:52.871Z,99261.44
2019-03-30T08:14:20.072Z,99261.13
2019-03-30T08:16:51.570Z,99259.31
2019-03-30T08:19:21.811Z,99255.47
2019-03-30T08:21:49.312Z,99255.47
2019-03-30T08:24:18.465Z,99265.58
2019-03-30T08:26:48.650Z,99257.77
2019-03-30T08:29:15.806Z,99254.28
2019-03-30T08:31:42.908Z,99259.59
2019-03-30T08:34:10.896Z,99251.61
2019-03-30T08:36:38.401Z,99252.98
2019-03-30T08:39:08.347Z,99252.98
2019-03-30T08:41:38.032Z,99252.15
2019-03-30T08:44:05.354Z,99248.03
2019-03-30T08:46:32.648Z,99261.70
2019-03-30T08:49:05.077Z,99248.77
2019-03-30T08:51:32.387Z,99253.78
2019-03-30T08:54:00.399Z,99253.78
2019-03-30T08:56:28.323Z,99249.61
2019-03-30T08:58:55.405Z,99253.11
2019-03-30T09:01:22.562Z,99248.11
2019-03-30T09:03:49.659Z,99241.77
2019-03-30T09:06:16.864Z,99243.94
2019-03-30T09:08:44.006Z,99239.41
2019-03-30T09:11:11.295Z,99240.63
2019-03-30T09:13:38.354Z,99239.48
2019-03-30T09:16:05.611Z,99234.77
2019-03-30T09:18:32.764Z,99231.44
2019-03-30T09:21:05.962Z,99232.69
2019-03-30T09:23:33.116Z,99235.56
2019-03-30T09:26:00.564Z,99230.89
2019-03-30T09:28:27.920Z,99230.48
2019-03-30T09:30:55.157Z,99232.52
2019-03-30T09:33:22.333Z,99214.67
2019-03-30T09:35:49.555Z,99221.22
2019-03-30T09:38:27.389Z,99217.82
2019-03-30T09:40:54.608Z,99223.51
2019-03-30T09:43:21.744Z,99215.53
2019-03-30T09:45:49.360Z,99209.02
2019-03-30T09:48:16.902Z,99216.42
2019-03-30T09:50:43.948Z,99214.92
2019-03-30T09:53:11.265Z,99218.00
2019-03-30T09:55:38.625Z,99208.08
2019-03-30T09:58:05.849Z,99203.92
2019-03-30T10:00:33.338Z,99209.33
2019-03-30T10:03:00.499Z,99205.74
2019-03-30T10:05:28.319Z,99195.56
2019-03-30T10:07:55.483Z,99196.06
2019-03-30T10:10:22.862Z,99194.89
2019-03-30T10:12:51.353Z,99200.77
2019-03-30T10:15:18.624Z,99194.81
2019-03-30T10:17:55.293Z,99191.95
2019-03-30T10:20:22.492Z,99195.02
2019-03-30T10:22:49.673Z,99189.48
2019-03-30T10:25:20.101Z,99190.55
2019-03-30T10:27:47.722Z,99183.80
2019-03-30T10:30:15.105Z,99178.62
2019-03-30T10:32:42.322Z,99180.73
2019-03-30T10:35:09.552Z,99179.88
2019-03-30T10:37:37.811Z,99177.13
2019-03-30T10:40:05.621Z,99171.20
2019-03-30T10:42:32.761Z,99164.43
2019-03-30T10:45:00.339Z,99163.86
2019-03-30T10:47:29.971Z,99166.36
2019-03-30T10:49:57.560Z,99163.24
2019-03-30T10:52:24.660Z,99164.28
2019-03-30T10:54:53.172Z,99149.45
2019-03-30T10:57:20.712Z,99152.59
2019-03-30T10:59:48.146Z,99148.80
2019-03-30T11:02:15.409Z,99147.64
2019-03-30T11:04:42.506Z,99147.55
2019-03-30T11:07:09.856Z,99141.66
2019-03-30T11:09:37.015Z,99137.84
2019-03-30T11:12:04.391Z,99133.97
2019-03-30T11:14:38.206Z,99130.34
2019-03-30T11:17:05.657Z,99132.89
2019-03-30T11:19:33.910Z,99125.80
2019-03-30T11:22:03.246Z,99127.80
2019-03-30T11:24:30.430Z,99124.59
2019-03-30T11:26:57.523Z,99128.41
2019-03-30T11:29:24.839Z,99123.63
2019-03-30T11:31:56.167Z,99115.67
2019-03-30T11:34:23.539Z,99112.58
2019-03-30T11:36:53.386Z,99106.77
2019-03-30T11:39:22.281Z,99103.31
2019-03-30T11:41:50.534Z,99103.50
2019-03-30T11:44:21.411Z,99102.69
2019-03-30T11:46:48.981Z,99087.66
2019-03-30T11:49:16.341Z,99089.20
2019-03-30T11:51:43.600Z,99082.58
2019-03-30T11:54:21.322Z,99089.02
2019-03-30T11:56:49.482Z,99086.23
2019-03-30T11:59:16.715Z,99083.47
2019-03-30T12:01:44.160Z,99077.89
2019-03-30T12:04:13.829Z,99078.41
2019-03-30T12:06:41.145Z,99075.64
2019-03-30T12:09:22.886Z,99067.69
2019-03-30T12:11:50.121Z,99066.62
2019-03-30T12:14:17.287Z,99060.30
2019-03-30T12:16:44.598Z,99047.44
2019-03-30T12:19:11.838Z,99057.23
2019-03-30T12:21:38.951Z,99045.77
2019-03-30T12:24:07.359Z,99042.71
2019-03-30T12:26:34.530Z,99040.30
2019-03-30T12:29:02.992Z,99038.97
2019-03-30T12:31:30.414Z,99028.22
2019-03-30T12:33:58.627Z,99018.69
2019-03-30T12:36:25.873Z,99022.40
2019-03-30T12:38:53.200Z,99009.43
2019-03-30T12:41:20.975Z,99012.73
2019-03-30T12:43:49.479Z,99004.94
2019-03-30T12:46:19.919Z,99003.66
2019-03-30T12:48:47.873Z,99004.52
2019-03-30T12:51:15.532Z,98999.41
2019-03-30T12:53:50.494Z,98999.03
2019-03-30T12:56:15.939Z,98994.59
2019-03-30T12:58:43.100Z,98986.91
2019-03-30T13:01:15.732Z,98981.52
2019-03-30T13:03:43.049Z,98979.39
2019-03-30T13:06:12.197Z,98972.61
2019-03-30T13:08:39.566Z,98964.61
2019-03-30T13:11:07.642Z,98966.34
2019-03-30T13:13:36.328Z,98962.53
2019-03-30T13:16:04.601Z,98956.59
2019-03-30T13:18:32.167Z,98943.80
2019-03-30T13:21:00.477Z,98949.43
2019-03-30T13:23:27.930Z,98950.42
2019-03-30T13:26:04.062Z,98943.04
2019-03-30T13:28:30.461Z,98943.70
2019-03-30T13:30:59.431Z,98939.39
2019-03-30T13:33:26.787Z,98936.98
2019-03-30T13:35:54.106Z,98931.94
2019-03-30T13:38:21.670Z,98930.20
2019-03-30T13:40:50.988Z,98927.20
2019-03-30T13:43:18.261Z,98926.45
2019-03-30T13:45:45.433Z,98927.02
2019-03-30T13:48:12.814Z,98924.89
2019-03-30T13:50:39.907Z,98917.66
2019-03-30T13:53:09.677Z,98916.40
2019-03-30T13:55:36.849Z,98909.24
2019-03-30T13:58:04.148Z,98909.73
2019-03-30T14:00:31.249Z,98904.06
2019-03-30T14:02:59.096Z,98908.96
2019-03-30T14:05:26.876Z,98902.88
2019-03-30T14:07:54.260Z,98898.72
2019-03-30T14:10:23.003Z,98895.09
2019-03-30T14:12:52.229Z,98894.39
2019-03-30T14:15:19.396Z,98898.05
2019-03-30T14:17:49.036Z,98890.95
2019-03-30T14:20:16.104Z,98891.09
2019-03-30T14:22:43.642Z,98895.43
2019-03-30T14:25:11.015Z,98885.31
2019-03-30T14:27:38.699Z,98884.22
2019-03-30T14:30:07.107Z,98881.69
2019-03-30T14:32:34.631Z,98878.08
2019-03-30T14:35:04.179Z,98874.03
2019-03-30T14:37:31.283Z,98870.34
2019-03-30T14:39:59.677Z,98869.63
2019-03-30T14:42:26.918Z,98862.95
2019-03-30T14:44:54.506Z,98859.56
2019-03-30T14:47:21.749Z,98860.38
2019-03-30T14:49:48.914Z,98866.27
2019-03-30T14:52:18.311Z,98858.67
2019-03-30T14:54:52.709Z,98852.97
2019-03-30T14:57:14.560Z,98853.19
2019-03-30T14:59:42.855Z,98848.15
2019-03-30T15:02:10.067Z,98845.66
2019-03-30T15:04:37.598Z,98846.70
2019-03-30T15:07:05.912Z,98845.91
2019-03-30T15:09:33.023Z,98845.85
2019-03-30T15:12:01.188Z,98834.95
2019-03-30T15:14:28.298Z,98834.02
2019-03-30T15:16:57.821Z,98837.70
2019-03-30T15:19:24.968Z,98836.12
2019-03-30T15:21:52.212Z,98831.27
2019-03-30T15:24:28.330Z,98831.17
2019-03-30T15:27:00.151Z,98828.59
2019-03-30T15:29:26.180Z,98835.98
2019-03-30T15:31:53.989Z,98832.30
2019-03-30T15:34:28.849Z,98825.64
2019-03-30T15:36:56.072Z,98830.16
2019-03-30T15:39:23.636Z,98829.98
2019-03-30T15:41:51.926Z,98825.42
2019-03-30T15:44:19.057Z,98820.73
2019-03-30T15:47:16.520Z,98820.73
2019-03-30T15:49:43.903Z,98820.63
2019-03-30T15:52:14.574Z,98822.56
2019-03-30T15:54:41.792Z,98816.36
2019-03-30T15:57:14.180Z,98815.99
2019-03-30T15:59:38.278Z,98810.67
2019-03-30T16:02:09.150Z,98812.31
2019-03-30T16:04:38.005Z,98813.10
2019-03-30T16:07:07.786Z,98806.83
2019-03-30T16:09:36.145Z,98806.88
2019-03-30T16:12:03.393Z,98800.86
2019-03-30T16:14:31.091Z,98800.84
2019-03-30T16:16:58.315Z,98802.06
2019-03-30T16:19:27.010Z,98796.37
2019-03-30T16:21:54.159Z,98796.00
2019-03-30T16:24:21.336Z,98797.64
2019-03-30T16:26:50.188Z,98798.85
2019-03-30T16:29:18.712Z,98798.85
2019-03-30T16:31:46.261Z,98803.70
2019-03-30T16:34:13.434Z,98797.80
2019-03-30T16:36:41.359Z,98793.84
2019-03-30T16:39:08.986Z,98793.84
2019-03-30T16:41:37.010Z,98801.42
2019-03-30T16:44:04.132Z,98796.42
2019-03-30T16:46:31.281Z,98788.39
2019-03-30T16:48:58.375Z,98792.85
2019-03-30T16:51:25.545Z,98786.88
2019-03-30T16:53:52.986Z,98788.34
2019-03-30T16:56:20.221Z,98788.34
2019-03-30T16:58:48.647Z,98782.64
2019-03-30T17:01:15.765Z,98772.80
2019-03-30T17:03:42.926Z,98772.80
2019-03-30T17:06:10.138Z,98781.95
2019-03-30T17:08:37.259Z,98781.02
2019-03-30T17:11:06.971Z,98778.91
2019-03-30T17:13:34.171Z,98787.66
2019-03-30T17:16:01.340Z,98786.18
2019-03-30T17:18:28.505Z,98786.20
2019-03-30T17:20:55.687Z,98782.69
2019-03-30T17:23:22.825Z,98783.63
2019-03-30T17:25:49.923Z,98779.57
2019-03-30T17:28:17.321Z,98779.28
2019-03-30T17:30:44.368Z,98785.55
2019-03-30T17:33:12.120Z,98784.22
2019-03-30T17:35:39.190Z,98784.06
2019-03-30T17:38:06.480Z,98778.36
2019-03-30T17:40:39.575Z,98785.48
2019-03-30T17:43:06.710Z,98787.53
2019-03-30T17:45:34.029Z,98788.58
2019-03-30T17:48:03.991Z,98789.19
2019-03-30T17:50:31.228Z,98793.54
2019-03-30T17:52:58.587Z,98788.56
2019-03-30T17:55:33.486Z,98790.04
2019-03-30T17:57:55.028Z,98799.45
2019-03-30T18:00:22.648Z,98801.91
2019-03-30T18:02:49.902Z,98796.33
2019-03-30T18:05:16.984Z,98801.73
2019-03-30T18:07:44.394Z,98807.88
2019-03-30T18:10:12.502Z,98803.77
2019-03-30T18:12:39.642Z,98806.70
2019-03-30T18:15:14.232Z,98812.37
2019-03-30T18:17:42.785Z,98812.69
2019-03-30T18:20:10.236Z,98819.56
2019-03-30T18:22:39.313Z,98812.30
2019-03-30T18:25:07.122Z,98817.32
2019-03-30T18:27:34.781Z,98820.14
2019-03-30T18:30:02.264Z,98823.08
2019-03-30T18:32:29.859Z,98822.27
2019-03-30T18:34:57.300Z,98822.80
2019-03-30T18:37:24.701Z,98823.29
2019-03-30T18:39:51.958Z,98819.09
2019-03-30T18:42:25.682Z,98824.08
2019-03-30T18:44:54.210Z,98822.84
2019-03-30T18:47:21.357Z,98828.38
2019-03-30T18:49:48.709Z,98839.81
2019-03-30T18:52:16.462Z,98840.67
2019-03-30T18:54:43.776Z,98842.89
2019-03-30T18:57:11.057Z,98840.11
2019-03-30T18:59:38.552Z,98845.52
2019-03-30T19:02:05.619Z,98843.91
2019-03-30T19:04:33.775Z,98844.84
2019-03-30T19:07:01.363Z,98843.22
2019-03-30T19:09:29.457Z,98842.50
2019-03-30T19:11:57.396Z,98846.92
2019-03-30T19:14:24.537Z,98844.89
2019-03-30T19:16:54.273Z,98843.64
2019-03-30T19:19:21.285Z,98849.38
2019-03-30T19:21:51.206Z,98846.30
2019-03-30T19:24:19.011Z,98848.09
2019-03-30T19:26:46.975Z,98842.91
2019-03-30T19:29:14.206Z,98840.31
2019-03-30T19:31:41.486Z,98840.31
2019-03-30T19:34:08.673Z,98839.94
2019-03-30T19:36:36.729Z,98835.06
2019-03-30T19:39:07.058Z,98839.90
2019-03-30T19:41:35.168Z,98838.97
2019-03-30T19:44:02.500Z,98831.15
2019-03-30T19:46:29.796Z,98837.69
2019-03-30T19:48:57.633Z,98833.78
2019-03-30T19:51:24.980Z,98829.80
2019-03-30T19:53:53.427Z,98838.55
2019-03-30T19:56:20.978Z,98831.98
2019-03-30T19:58:48.021Z,98829.80
2019-03-30T20:01:15.424Z,98824.64
2019-03-30T20:03:42.665Z,98825.61
2019-03-30T20:06:09.979Z,98828.75
2019-03-30T20:08:37.362Z,98827.50
2019-03-30T20:11:05.080Z,98827.41
2019-03-30T20:13:32.208Z,98829.07
2019-03-30T20:15:59.254Z,98829.94
2019-03-30T20:18:26.391Z,98830.87
2019-03-30T20:20:53.526Z,98825.20
2019-03-30T20:23:20.650Z,98827.47
2019-03-30T20:25:47.994Z,98824.55
2019-03-30T20:28:15.068Z,98825.91
2019-03-30T20:30:42.426Z,98823.21
2019-03-30T20:33:09.535Z,98825.71
2019-03-30T20:35:36.862Z,98826.51
2019-03-30T20:38:04.063Z,98827.34
2019-03-30T20:40:31.114Z,98826.41
2019-03-30T20:42:58.214Z,98818.91
2019-03-30T20:45:26.455Z,98820.30
2019-03-30T20:47:57.220Z,98819.87
2019-03-30T20:50:24.693Z,98817.83
2019-03-30T20:52:53.006Z,98819.63
2019-03-30T20:55:20.333Z,98818.76
2019-03-30T20:57:47.823Z,98816.96
2019-03-30T21:00:15.821Z,98815.00
2019-03-30T21:02:42.934Z,98813.90
2019-03-30T21:05:10.515Z,98811.26
2019-03-30T21:07:37.541Z,98810.73
2019-03-30T21:10:06.861Z,98807.27
2019-03-30T21:12:34.413Z,98808.06
2019-03-30T21:15:01.576Z,98808.44
2019-03-30T21:17:33.326Z,98805.81
2019-03-30T21:20:02.427Z,98805.89
2019-03-30T21:22:34.781Z,98847.55
2019-03-30T21:25:10.047Z,98841.99
2019-03-30T21:27:37.079Z,98817.62
2019-03-30T21:30:06.607Z,98838.27
2019-03-30T21:32:34.027Z,98837.81
2019-03-30T21:35:01.243Z,98837.44
2019-03-30T21:37:28.361Z,98838.88
2019-03-30T21:39:55.441Z,98836.86
2019-03-30T21:42:30.554Z,98839.39
2019-03-30T21:44:57.746Z,98839.33
2019-03-30T21:47:24.791Z,98840.00
2019-03-30T21:49:51.997Z,98843.36
2019-03-30T21:52:22.258Z,98848.52
2019-03-30T21:54:51.791Z,98849.67
2019-03-30T21:57:21.051Z,98849.36
2019-03-30T21:59:48.089Z,98851.89
2019-03-30T22:02:15.892Z,98853.52
2019-03-30T22:04:43.361Z,98860.54
2019-03-30T22:07:31.199Z,98848.42
2019-03-30T22:09:59.569Z,98855.92
2019-03-30T22:12:28.126Z,98854.38
2019-03-30T22:14:55.207Z,98854.56
2019-03-30T22:17:23.420Z,98849.93
2019-03-30T22:19:58.866Z,98859.98
2019-03-30T22:22:26.116Z,98859.51
2019-03-30T22:25:03.170Z,98860.05
2019-03-30T22:27:37.096Z,98863.76
2019-03-30T22:30:05.012Z,98859.95
2019-03-30T22:32:32.187Z,98860.92
2019-03-30T22:34:59.231Z,98867.96
2019-03-30T22:37:26.280Z,98861.08
2019-03-30T22:39:53.786Z,98859.89
2019-03-30T22:42:21.118Z,98859.17
2019-03-30T22:44:48.561Z,98859.64
2019-03-30T22:47:15.626Z,98860.02
2019-03-30T22:49:42.685Z,98859.88
2019-03-30T22:52:09.762Z,98862.84
2019-03-30T22:54:36.903Z,98855.53
2019-03-30T22:57:03.945Z,98860.55
2019-03-30T22:59:31.104Z,98862.42
2019-03-30T23:01:58.315Z,98868.99
2019-03-30T23:04:25.325Z,98862.91
2019-03-30T23:06:54.468Z,98869.97
2019-03-30T23:09:21.618Z,98869.67
2019-03-30T23:11:48.682Z,98868.07
2019-03-30T23:14:15.734Z,98873.36
2019-03-30T23:16:43.035Z,98871.69
2019-03-30T23:19:10.141Z,98862.11
2019-03-30T23:21:37.201Z,98864.59
2019-03-30T23:24:07.040Z,98864.61
2019-03-30T23:26:34.385Z,98866.83
2019-03-30T23:29:01.868Z,98866.11
2019-03-30T23:31:28.974Z,98870.53
2019-03-30T23:33:56.297Z,98864.90
2019-03-30T23:36:23.416Z,98869.31
2019-03-30T23:38:53.525Z,98867.56
2019-03-30T23:41:20.731Z,98862.27
2019-03-30T23:43:47.805Z,98865.31
2019-03-30T23:46:15.157Z,98867.52
2019-03-30T23:48:42.275Z,98862.23
2019-03-30T23:51:09.287Z,98865.73
2019-03-30T23:53:36.320Z,98856.16
2019-03-30T23:56:15.816Z,98868.08
2019-03-30T23:58:42.873Z,98863.00
